sensor_id;sensor_type;location;lat;lon;timestamp;temperature;humidity
52187;DHT22;38161;53.020;6.598;2022-08-19T00:00:38;15.60;99.90
52187;DHT22;38161;53.020;6.598;2022-08-19T00:03:04;15.50;99.90
52187;DHT22;38161;53.020;6.598;2022-08-19T00:05:31;15.50;99.90
52187;DHT22;38161;53.020;6.598;2022-08-19T00:07:57;15.50;99.90
52187;DHT22;38161;53.020;6.598;2022-08-19T00:10:23;15.50;99.90
52187;DHT22;38161;53.020;6.598;2022-08-19T00:12:50;15.40;99.90
52187;DHT22;38161;53.020;6.598;2022-08-19T00:15:18;15.40;99.90
52187;DHT22;38161;53.020;6.598;2022-08-19T00:17:45;15.40;99.90
52187;DHT22;38161;53.020;6.598;2022-08-19T00:20:15;15.40;99.90
52187;DHT22;38161;53.020;6.598;2022-08-19T00:22:44;15.30;99.90
52187;DHT22;38161;53.020;6.598;2022-08-19T00:25:10;15.30;99.90
52187;DHT22;38161;53.020;6.598;2022-08-19T00:27:36;15.30;99.90
52187;DHT22;38161;53.020;6.598;2022-08-19T00:30:03;15.20;99.90
52187;DHT22;38161;53.020;6.598;2022-08-19T00:32:30;15.20;99.90
52187;DHT22;38161;53.020;6.598;2022-08-19T00:34:55;15.20;99.90
52187;DHT22;38161;53.020;6.598;2022-08-19T00:37:23;15.10;99.90
52187;DHT22;38161;53.020;6.598;2022-08-19T00:39:50;15.10;99.90
52187;DHT22;38161;53.020;6.598;2022-08-19T00:42:17;15.10;99.90
52187;DHT22;38161;53.020;6.598;2022-08-19T00:44:43;15.10;99.90
52187;DHT22;38161;53.020;6.598;2022-08-19T00:47:08;15.00;99.90
52187;DHT22;38161;53.020;6.598;2022-08-19T00:49:39;15.00;99.90
52187;DHT22;38161;53.020;6.598;2022-08-19T00:52:25;15.00;99.90
52187;DHT22;38161;53.020;6.598;2022-08-19T00:54:53;15.00;99.90
52187;DHT22;38161;53.020;6.598;2022-08-19T00:57:24;14.90;99.90
52187;DHT22;38161;53.020;6.598;2022-08-19T00:59:54;15.00;99.90
52187;DHT22;38161;53.020;6.598;2022-08-19T01:02:21;15.00;99.90
52187;DHT22;38161;53.020;6.598;2022-08-19T01:04:46;15.00;99.90
52187;DHT22;38161;53.020;6.598;2022-08-19T01:07:12;15.00;99.90
52187;DHT22;38161;53.020;6.598;2022-08-19T01:09:38;14.90;99.90
52187;DHT22;38161;53.020;6.598;2022-08-19T01:12:04;14.90;99.90
52187;DHT22;38161;53.020;6.598;2022-08-19T01:14:30;14.90;99.90
52187;DHT22;38161;53.020;6.598;2022-08-19T01:16:57;14.90;99.90
52187;DHT22;38161;53.020;6.598;2022-08-19T01:19:37;14.90;99.90
52187;DHT22;38161;53.020;6.598;2022-08-19T01:24:35;14.80;99.90
52187;DHT22;38161;53.020;6.598;2022-08-19T01:27:05;14.80;99.90
52187;DHT22;38161;53.020;6.598;2022-08-19T01:29:31;14.80;99.90
52187;DHT22;38161;53.020;6.598;2022-08-19T01:31:58;14.80;99.90
52187;DHT22;38161;53.020;6.598;2022-08-19T01:34:24;14.80;99.90
52187;DHT22;38161;53.020;6.598;2022-08-19T01:36:50;14.70;99.90
52187;DHT22;38161;53.020;6.598;2022-08-19T01:39:20;14.70;99.90
52187;DHT22;38161;53.020;6.598;2022-08-19T01:41:47;14.70;99.90
52187;DHT22;38161;53.020;6.598;2022-08-19T01:44:13;14.60;99.90
52187;DHT22;38161;53.020;6.598;2022-08-19T01:46:39;14.70;99.90
52187;DHT22;38161;53.020;6.598;2022-08-19T01:49:05;14.60;99.90
52187;DHT22;38161;53.020;6.598;2022-08-19T01:51:32;14.60;99.90
52187;DHT22;38161;53.020;6.598;2022-08-19T01:53:58;14.60;99.90
52187;DHT22;38161;53.020;6.598;2022-08-19T01:56:24;14.60;99.90
52187;DHT22;38161;53.020;6.598;2022-08-19T01:58:57;14.60;99.90
52187;DHT22;38161;53.020;6.598;2022-08-19T02:01:23;14.60;99.90
52187;DHT22;38161;53.020;6.598;2022-08-19T02:03:49;14.50;99.90
52187;DHT22;38161;53.020;6.598;2022-08-19T02:06:15;14.60;99.90
52187;DHT22;38161;53.020;6.598;2022-08-19T02:08:42;14.50;99.90
52187;DHT22;38161;53.020;6.598;2022-08-19T02:11:19;14.50;99.90
52187;DHT22;38161;53.020;6.598;2022-08-19T02:13:46;14.50;99.90
52187;DHT22;38161;53.020;6.598;2022-08-19T02:16:11;14.50;99.90
52187;DHT22;38161;53.020;6.598;2022-08-19T02:18:37;14.40;99.90
52187;DHT22;38161;53.020;6.598;2022-08-19T02:21:03;14.40;99.90
52187;DHT22;38161;53.020;6.598;2022-08-19T02:23:29;14.40;99.90
52187;DHT22;38161;53.020;6.598;2022-08-19T02:25:54;14.40;99.90
52187;DHT22;38161;53.020;6.598;2022-08-19T02:28:20;14.30;99.90
52187;DHT22;38161;53.020;6.598;2022-08-19T02:30:47;14.30;99.90
52187;DHT22;38161;53.020;6.598;2022-08-19T02:33:13;14.20;99.90
52187;DHT22;38161;53.020;6.598;2022-08-19T02:35:46;14.20;99.90
52187;DHT22;38161;53.020;6.598;2022-08-19T02:38:12;14.20;99.90
52187;DHT22;38161;53.020;6.598;2022-08-19T02:40:57;14.20;99.90
52187;DHT22;38161;53.020;6.598;2022-08-19T02:43:24;14.10;99.90
52187;DHT22;38161;53.020;6.598;2022-08-19T02:45:49;14.10;99.90
52187;DHT22;38161;53.020;6.598;2022-08-19T02:48:21;14.10;99.90
52187;DHT22;38161;53.020;6.598;2022-08-19T02:50:49;14.00;99.90
52187;DHT22;38161;53.020;6.598;2022-08-19T02:53:24;14.00;99.90
52187;DHT22;38161;53.020;6.598;2022-08-19T02:55:50;14.00;99.90
52187;DHT22;38161;53.020;6.598;2022-08-19T02:58:16;14.00;99.90
52187;DHT22;38161;53.020;6.598;2022-08-19T03:00:45;14.00;99.90
52187;DHT22;38161;53.020;6.598;2022-08-19T03:03:12;14.00;99.90
52187;DHT22;38161;53.020;6.598;2022-08-19T03:05:38;14.00;99.90
52187;DHT22;38161;53.020;6.598;2022-08-19T03:08:04;14.00;99.90
52187;DHT22;38161;53.020;6.598;2022-08-19T03:10:32;14.00;99.90
52187;DHT22;38161;53.020;6.598;2022-08-19T03:12:58;14.00;99.90
52187;DHT22;38161;53.020;6.598;2022-08-19T03:15:24;14.00;99.90
52187;DHT22;38161;53.020;6.598;2022-08-19T03:17:49;14.00;99.90
52187;DHT22;38161;53.020;6.598;2022-08-19T03:20:15;13.90;99.90
52187;DHT22;38161;53.020;6.598;2022-08-19T03:22:41;13.90;99.90
52187;DHT22;38161;53.020;6.598;2022-08-19T03:25:07;14.00;99.90
52187;DHT22;38161;53.020;6.598;2022-08-19T03:27:32;14.00;99.90
52187;DHT22;38161;53.020;6.598;2022-08-19T03:29:58;13.90;99.90
52187;DHT22;38161;53.020;6.598;2022-08-19T03:32:24;14.00;99.90
52187;DHT22;38161;53.020;6.598;2022-08-19T03:34:50;14.00;99.90
52187;DHT22;38161;53.020;6.598;2022-08-19T03:37:17;14.00;99.90
52187;DHT22;38161;53.020;6.598;2022-08-19T03:39:44;13.90;99.90
52187;DHT22;38161;53.020;6.598;2022-08-19T03:42:11;13.90;99.90
52187;DHT22;38161;53.020;6.598;2022-08-19T03:44:37;13.90;99.90
52187;DHT22;38161;53.020;6.598;2022-08-19T03:47:04;13.90;99.90
52187;DHT22;38161;53.020;6.598;2022-08-19T03:49:32;13.90;99.90
52187;DHT22;38161;53.020;6.598;2022-08-19T03:52:00;13.90;99.90
52187;DHT22;38161;53.020;6.598;2022-08-19T03:54:26;13.90;99.90
52187;DHT22;38161;53.020;6.598;2022-08-19T03:56:55;13.80;99.90
52187;DHT22;38161;53.020;6.598;2022-08-19T03:59:28;13.80;99.90
52187;DHT22;38161;53.020;6.598;2022-08-19T04:01:56;13.80;99.90
52187;DHT22;38161;53.020;6.598;2022-08-19T04:04:22;13.70;99.90
52187;DHT22;38161;53.020;6.598;2022-08-19T04:06:49;13.70;99.90
52187;DHT22;38161;53.020;6.598;2022-08-19T04:09:16;13.70;99.90
52187;DHT22;38161;53.020;6.598;2022-08-19T04:11:45;13.70;99.90
52187;DHT22;38161;53.020;6.598;2022-08-19T04:14:17;13.60;99.90
52187;DHT22;38161;53.020;6.598;2022-08-19T04:16:44;13.60;99.90
52187;DHT22;38161;53.020;6.598;2022-08-19T04:19:10;13.60;99.90
52187;DHT22;38161;53.020;6.598;2022-08-19T04:21:36;13.50;99.90
52187;DHT22;38161;53.020;6.598;2022-08-19T04:24:03;13.50;99.90
52187;DHT22;38161;53.020;6.598;2022-08-19T04:26:32;13.40;99.90
52187;DHT22;38161;53.020;6.598;2022-08-19T04:29:01;13.40;99.90
52187;DHT22;38161;53.020;6.598;2022-08-19T04:31:29;13.40;99.90
52187;DHT22;38161;53.020;6.598;2022-08-19T04:33:59;13.40;99.90
52187;DHT22;38161;53.020;6.598;2022-08-19T04:36:32;13.30;99.90
52187;DHT22;38161;53.020;6.598;2022-08-19T04:39:04;13.30;99.90
52187;DHT22;38161;53.020;6.598;2022-08-19T04:41:30;13.30;99.90
52187;DHT22;38161;53.020;6.598;2022-08-19T04:44:14;13.30;99.90
52187;DHT22;38161;53.020;6.598;2022-08-19T04:46:47;13.30;99.90
52187;DHT22;38161;53.020;6.598;2022-08-19T04:49:16;13.30;99.90
52187;DHT22;38161;53.020;6.598;2022-08-19T04:51:44;13.20;99.90
52187;DHT22;38161;53.020;6.598;2022-08-19T04:54:10;13.20;99.90
52187;DHT22;38161;53.020;6.598;2022-08-19T04:56:36;13.20;99.90
52187;DHT22;38161;53.020;6.598;2022-08-19T04:59:01;13.20;99.90
52187;DHT22;38161;53.020;6.598;2022-08-19T05:01:32;13.30;99.90
52187;DHT22;38161;53.020;6.598;2022-08-19T05:03:59;13.30;99.90
52187;DHT22;38161;53.020;6.598;2022-08-19T05:06:26;13.30;99.90
52187;DHT22;38161;53.020;6.598;2022-08-19T05:08:54;13.30;99.90
52187;DHT22;38161;53.020;6.598;2022-08-19T05:11:22;13.40;99.90
52187;DHT22;38161;53.020;6.598;2022-08-19T05:13:49;13.40;99.90
52187;DHT22;38161;53.020;6.598;2022-08-19T05:16:16;13.40;99.90
52187;DHT22;38161;53.020;6.598;2022-08-19T05:18:43;13.50;99.90
52187;DHT22;38161;53.020;6.598;2022-08-19T05:21:28;13.50;99.90
52187;DHT22;38161;53.020;6.598;2022-08-19T05:24:13;13.50;99.90
52187;DHT22;38161;53.020;6.598;2022-08-19T05:26:44;13.50;99.90
52187;DHT22;38161;53.020;6.598;2022-08-19T05:29:13;13.60;99.90
52187;DHT22;38161;53.020;6.598;2022-08-19T05:31:39;13.60;99.90
52187;DHT22;38161;53.020;6.598;2022-08-19T05:34:06;13.70;99.90
52187;DHT22;38161;53.020;6.598;2022-08-19T05:36:42;13.70;99.90
52187;DHT22;38161;53.020;6.598;2022-08-19T05:39:13;13.80;99.90
52187;DHT22;38161;53.020;6.598;2022-08-19T05:41:44;13.80;99.90
52187;DHT22;38161;53.020;6.598;2022-08-19T05:44:10;14.00;99.90
52187;DHT22;38161;53.020;6.598;2022-08-19T05:46:37;14.00;99.90
52187;DHT22;38161;53.020;6.598;2022-08-19T05:49:04;14.10;99.90
52187;DHT22;38161;53.020;6.598;2022-08-19T05:51:31;14.20;99.90
52187;DHT22;38161;53.020;6.598;2022-08-19T05:53:58;14.30;99.90
52187;DHT22;38161;53.020;6.598;2022-08-19T05:56:24;14.40;99.90
52187;DHT22;38161;53.020;6.598;2022-08-19T05:58:50;14.50;99.90
52187;DHT22;38161;53.020;6.598;2022-08-19T06:01:17;14.70;99.90
52187;DHT22;38161;53.020;6.598;2022-08-19T06:03:44;14.80;99.90
52187;DHT22;38161;53.020;6.598;2022-08-19T06:06:14;15.00;99.90
52187;DHT22;38161;53.020;6.598;2022-08-19T06:08:40;15.10;99.90
52187;DHT22;38161;53.020;6.598;2022-08-19T06:13:47;15.40;99.90
52187;DHT22;38161;53.020;6.598;2022-08-19T06:16:17;15.50;99.90
52187;DHT22;38161;53.020;6.598;2022-08-19T06:18:53;15.60;99.90
52187;DHT22;38161;53.020;6.598;2022-08-19T06:21:23;15.80;99.90
52187;DHT22;38161;53.020;6.598;2022-08-19T06:23:49;16.00;99.90
52187;DHT22;38161;53.020;6.598;2022-08-19T06:26:18;16.20;99.90
52187;DHT22;38161;53.020;6.598;2022-08-19T06:28:45;16.30;99.90
52187;DHT22;38161;53.020;6.598;2022-08-19T06:31:19;16.40;99.90
52187;DHT22;38161;53.020;6.598;2022-08-19T06:33:47;16.50;99.90
52187;DHT22;38161;53.020;6.598;2022-08-19T06:36:28;16.60;99.90
52187;DHT22;38161;53.020;6.598;2022-08-19T06:39:07;16.70;99.90
52187;DHT22;38161;53.020;6.598;2022-08-19T06:41:43;16.80;99.90
52187;DHT22;38161;53.020;6.598;2022-08-19T06:44:09;16.90;99.90
52187;DHT22;38161;53.020;6.598;2022-08-19T06:46:36;17.00;99.90
52187;DHT22;38161;53.020;6.598;2022-08-19T06:49:02;17.20;99.90
52187;DHT22;38161;53.020;6.598;2022-08-19T06:51:28;17.20;99.90
52187;DHT22;38161;53.020;6.598;2022-08-19T06:53:54;17.30;99.90
52187;DHT22;38161;53.020;6.598;2022-08-19T06:56:24;17.40;99.90
52187;DHT22;38161;53.020;6.598;2022-08-19T06:58:51;17.50;99.90
52187;DHT22;38161;53.020;6.598;2022-08-19T07:01:19;17.60;99.90
52187;DHT22;38161;53.020;6.598;2022-08-19T07:03:45;17.70;99.90
52187;DHT22;38161;53.020;6.598;2022-08-19T07:06:15;17.80;99.90
52187;DHT22;38161;53.020;6.598;2022-08-19T07:08:44;17.90;99.90
52187;DHT22;38161;53.020;6.598;2022-08-19T07:11:14;18.00;99.90
52187;DHT22;38161;53.020;6.598;2022-08-19T07:13:41;18.10;99.90
52187;DHT22;38161;53.020;6.598;2022-08-19T07:16:12;18.20;99.90
52187;DHT22;38161;53.020;6.598;2022-08-19T07:18:38;18.30;99.90
52187;DHT22;38161;53.020;6.598;2022-08-19T07:21:06;18.40;99.90
52187;DHT22;38161;53.020;6.598;2022-08-19T07:23:32;18.40;99.90
52187;DHT22;38161;53.020;6.598;2022-08-19T07:26:07;18.60;99.90
52187;DHT22;38161;53.020;6.598;2022-08-19T07:28:33;18.70;99.90
52187;DHT22;38161;53.020;6.598;2022-08-19T07:30:59;18.80;99.90
52187;DHT22;38161;53.020;6.598;2022-08-19T07:33:27;18.90;99.90
52187;DHT22;38161;53.020;6.598;2022-08-19T07:35:53;19.00;99.90
52187;DHT22;38161;53.020;6.598;2022-08-19T07:38:20;19.20;99.90
52187;DHT22;38161;53.020;6.598;2022-08-19T07:40:46;19.30;99.90
52187;DHT22;38161;53.020;6.598;2022-08-19T07:43:12;19.40;99.90
52187;DHT22;38161;53.020;6.598;2022-08-19T07:45:37;19.50;99.90
52187;DHT22;38161;53.020;6.598;2022-08-19T07:48:03;19.60;99.90
52187;DHT22;38161;53.020;6.598;2022-08-19T07:50:29;19.70;99.90
52187;DHT22;38161;53.020;6.598;2022-08-19T07:52:55;19.80;99.90
52187;DHT22;38161;53.020;6.598;2022-08-19T07:55:24;20.00;99.90
52187;DHT22;38161;53.020;6.598;2022-08-19T07:57:50;20.00;99.90
52187;DHT22;38161;53.020;6.598;2022-08-19T08:00:17;20.20;99.90
52187;DHT22;38161;53.020;6.598;2022-08-19T08:02:43;20.30;99.90
52187;DHT22;38161;53.020;6.598;2022-08-19T08:05:10;20.40;99.90
52187;DHT22;38161;53.020;6.598;2022-08-19T08:07:54;20.50;99.90
52187;DHT22;38161;53.020;6.598;2022-08-19T08:10:39;20.60;99.90
52187;DHT22;38161;53.020;6.598;2022-08-19T08:13:05;20.70;99.90
52187;DHT22;38161;53.020;6.598;2022-08-19T08:15:31;20.80;99.90
52187;DHT22;38161;53.020;6.598;2022-08-19T08:17:57;20.90;99.90
52187;DHT22;38161;53.020;6.598;2022-08-19T08:20:23;21.00;99.90
52187;DHT22;38161;53.020;6.598;2022-08-19T08:22:49;21.10;99.90
52187;DHT22;38161;53.020;6.598;2022-08-19T08:25:35;21.20;99.90
52187;DHT22;38161;53.020;6.598;2022-08-19T08:28:02;21.30;99.90
52187;DHT22;38161;53.020;6.598;2022-08-19T08:30:29;21.30;99.90
52187;DHT22;38161;53.020;6.598;2022-08-19T08:32:56;21.40;99.90
52187;DHT22;38161;53.020;6.598;2022-08-19T08:35:23;21.50;99.90
52187;DHT22;38161;53.020;6.598;2022-08-19T08:37:51;21.60;99.90
52187;DHT22;38161;53.020;6.598;2022-08-19T08:40:28;21.70;99.90
52187;DHT22;38161;53.020;6.598;2022-08-19T08:45:59;21.90;99.90
52187;DHT22;38161;53.020;6.598;2022-08-19T08:50:58;22.10;99.90
52187;DHT22;38161;53.020;6.598;2022-08-19T08:53:26;22.10;99.90
52187;DHT22;38161;53.020;6.598;2022-08-19T08:55:52;22.20;99.90
52187;DHT22;38161;53.020;6.598;2022-08-19T08:58:28;22.30;99.90
52187;DHT22;38161;53.020;6.598;2022-08-19T09:00:54;22.40;99.90
52187;DHT22;38161;53.020;6.598;2022-08-19T09:03:26;22.50;99.90
52187;DHT22;38161;53.020;6.598;2022-08-19T09:14:40;22.90;99.90
52187;DHT22;38161;53.020;6.598;2022-08-19T09:17:12;22.90;99.90
52187;DHT22;38161;53.020;6.598;2022-08-19T09:22:18;23.10;99.90
52187;DHT22;38161;53.020;6.598;2022-08-19T09:24:48;23.10;99.90
52187;DHT22;38161;53.020;6.598;2022-08-19T09:27:14;23.20;99.90
52187;DHT22;38161;53.020;6.598;2022-08-19T09:29:39;23.30;99.90
52187;DHT22;38161;53.020;6.598;2022-08-19T09:32:05;23.40;99.90
52187;DHT22;38161;53.020;6.598;2022-08-19T09:34:32;23.50;99.90
52187;DHT22;38161;53.020;6.598;2022-08-19T09:36:58;23.50;99.90
52187;DHT22;38161;53.020;6.598;2022-08-19T09:39:25;23.60;99.90
52187;DHT22;38161;53.020;6.598;2022-08-19T09:41:51;23.70;99.90
52187;DHT22;38161;53.020;6.598;2022-08-19T09:44:18;23.80;99.90
52187;DHT22;38161;53.020;6.598;2022-08-19T09:46:46;23.90;99.90
52187;DHT22;38161;53.020;6.598;2022-08-19T09:49:16;24.00;99.90
52187;DHT22;38161;53.020;6.598;2022-08-19T09:51:43;24.10;99.90
52187;DHT22;38161;53.020;6.598;2022-08-19T09:54:08;24.10;99.90
52187;DHT22;38161;53.020;6.598;2022-08-19T09:56:34;24.20;99.90
52187;DHT22;38161;53.020;6.598;2022-08-19T09:59:02;24.30;99.90
52187;DHT22;38161;53.020;6.598;2022-08-19T10:01:30;24.40;99.90
52187;DHT22;38161;53.020;6.598;2022-08-19T10:03:58;24.50;99.90
52187;DHT22;38161;53.020;6.598;2022-08-19T10:06:25;24.60;99.90
52187;DHT22;38161;53.020;6.598;2022-08-19T10:08:54;24.60;99.90
52187;DHT22;38161;53.020;6.598;2022-08-19T10:11:20;24.70;99.90
52187;DHT22;38161;53.020;6.598;2022-08-19T10:13:46;24.70;99.90
52187;DHT22;38161;53.020;6.598;2022-08-19T10:16:19;24.90;99.90
52187;DHT22;38161;53.020;6.598;2022-08-19T10:18:47;24.90;99.90
52187;DHT22;38161;53.020;6.598;2022-08-19T10:21:16;25.00;99.90
52187;DHT22;38161;53.020;6.598;2022-08-19T10:23:45;25.00;99.90
52187;DHT22;38161;53.020;6.598;2022-08-19T10:26:17;25.10;99.90
52187;DHT22;38161;53.020;6.598;2022-08-19T10:28:43;25.20;99.90
52187;DHT22;38161;53.020;6.598;2022-08-19T10:31:16;25.20;99.90
52187;DHT22;38161;53.020;6.598;2022-08-19T10:33:43;25.40;99.90
52187;DHT22;38161;53.020;6.598;2022-08-19T10:36:17;25.40;99.90
52187;DHT22;38161;53.020;6.598;2022-08-19T10:38:45;25.40;99.90
52187;DHT22;38161;53.020;6.598;2022-08-19T10:41:13;25.50;99.90
52187;DHT22;38161;53.020;6.598;2022-08-19T10:43:40;25.60;99.90
52187;DHT22;38161;53.020;6.598;2022-08-19T10:46:08;25.70;99.90
52187;DHT22;38161;53.020;6.598;2022-08-19T10:48:34;25.70;99.90
52187;DHT22;38161;53.020;6.598;2022-08-19T10:51:01;25.80;99.90
52187;DHT22;38161;53.020;6.598;2022-08-19T10:53:45;26.00;99.90
52187;DHT22;38161;53.020;6.598;2022-08-19T10:56:11;26.10;99.90
52187;DHT22;38161;53.020;6.598;2022-08-19T10:58:55;26.00;99.90
52187;DHT22;38161;53.020;6.598;2022-08-19T11:01:22;25.90;99.90
52187;DHT22;38161;53.020;6.598;2022-08-19T11:03:48;25.80;99.90
52187;DHT22;38161;53.020;6.598;2022-08-19T11:06:13;25.60;99.90
52187;DHT22;38161;53.020;6.598;2022-08-19T11:08:39;25.40;99.90
52187;DHT22;38161;53.020;6.598;2022-08-19T11:11:06;25.40;99.90
52187;DHT22;38161;53.020;6.598;2022-08-19T11:13:39;25.40;99.90
52187;DHT22;38161;53.020;6.598;2022-08-19T11:16:12;25.30;99.90
52187;DHT22;38161;53.020;6.598;2022-08-19T11:18:48;25.30;99.90
52187;DHT22;38161;53.020;6.598;2022-08-19T11:21:18;25.20;99.90
52187;DHT22;38161;53.020;6.598;2022-08-19T11:23:47;25.10;99.90
52187;DHT22;38161;53.020;6.598;2022-08-19T11:26:13;25.10;99.90
52187;DHT22;38161;53.020;6.598;2022-08-19T11:28:40;25.20;99.90
52187;DHT22;38161;53.020;6.598;2022-08-19T11:31:14;25.20;99.90
52187;DHT22;38161;53.020;6.598;2022-08-19T11:33:41;25.30;99.90
52187;DHT22;38161;53.020;6.598;2022-08-19T11:36:06;25.30;99.90
52187;DHT22;38161;53.020;6.598;2022-08-19T11:38:33;25.50;99.90
52187;DHT22;38161;53.020;6.598;2022-08-19T11:41:04;25.60;99.90
52187;DHT22;38161;53.020;6.598;2022-08-19T11:43:32;25.80;99.90
52187;DHT22;38161;53.020;6.598;2022-08-19T11:45:59;25.80;99.90
52187;DHT22;38161;53.020;6.598;2022-08-19T11:48:25;25.90;99.90
52187;DHT22;38161;53.020;6.598;2022-08-19T11:50:53;26.00;99.90
52187;DHT22;38161;53.020;6.598;2022-08-19T11:53:22;26.00;99.90
52187;DHT22;38161;53.020;6.598;2022-08-19T11:55:48;25.90;99.90
52187;DHT22;38161;53.020;6.598;2022-08-19T11:58:16;25.90;99.90
52187;DHT22;38161;53.020;6.598;2022-08-19T12:00:42;25.90;99.90
52187;DHT22;38161;53.020;6.598;2022-08-19T12:03:11;26.00;99.90
52187;DHT22;38161;53.020;6.598;2022-08-19T12:05:38;26.00;99.90
52187;DHT22;38161;53.020;6.598;2022-08-19T12:08:06;26.10;99.90
52187;DHT22;38161;53.020;6.598;2022-08-19T12:10:32;26.20;99.90
52187;DHT22;38161;53.020;6.598;2022-08-19T12:12:59;26.20;99.90
52187;DHT22;38161;53.020;6.598;2022-08-19T12:15:26;26.10;99.90
52187;DHT22;38161;53.020;6.598;2022-08-19T12:17:53;26.10;99.90
52187;DHT22;38161;53.020;6.598;2022-08-19T12:20:22;26.00;99.90
52187;DHT22;38161;53.020;6.598;2022-08-19T12:22:49;26.00;99.90
52187;DHT22;38161;53.020;6.598;2022-08-19T12:25:14;25.90;99.90
52187;DHT22;38161;53.020;6.598;2022-08-19T12:27:40;25.80;99.90
52187;DHT22;38161;53.020;6.598;2022-08-19T12:30:08;25.80;99.90
52187;DHT22;38161;53.020;6.598;2022-08-19T12:32:35;25.70;99.90
52187;DHT22;38161;53.020;6.598;2022-08-19T12:35:01;25.70;99.90
52187;DHT22;38161;53.020;6.598;2022-08-19T12:37:26;25.70;99.90
52187;DHT22;38161;53.020;6.598;2022-08-19T12:39:52;25.70;99.90
52187;DHT22;38161;53.020;6.598;2022-08-19T12:42:18;25.70;99.90
52187;DHT22;38161;53.020;6.598;2022-08-19T12:44:43;25.80;99.90
52187;DHT22;38161;53.020;6.598;2022-08-19T12:47:11;25.90;99.90
52187;DHT22;38161;53.020;6.598;2022-08-19T12:49:39;26.10;99.90
52187;DHT22;38161;53.020;6.598;2022-08-19T12:52:07;26.30;99.90
52187;DHT22;38161;53.020;6.598;2022-08-19T12:54:34;26.50;99.90
52187;DHT22;38161;53.020;6.598;2022-08-19T12:57:07;26.60;99.90
52187;DHT22;38161;53.020;6.598;2022-08-19T12:59:34;26.70;99.90
52187;DHT22;38161;53.020;6.598;2022-08-19T13:02:06;26.80;99.90
52187;DHT22;38161;53.020;6.598;2022-08-19T13:04:33;26.80;99.90
52187;DHT22;38161;53.020;6.598;2022-08-19T13:07:07;26.90;99.90
52187;DHT22;38161;53.020;6.598;2022-08-19T13:09:34;27.00;99.90
52187;DHT22;38161;53.020;6.598;2022-08-19T13:12:00;27.00;99.90
52187;DHT22;38161;53.020;6.598;2022-08-19T13:14:28;27.00;99.90
52187;DHT22;38161;53.020;6.598;2022-08-19T13:16:56;27.00;99.90
52187;DHT22;38161;53.020;6.598;2022-08-19T13:19:22;27.00;99.90
52187;DHT22;38161;53.020;6.598;2022-08-19T13:21:50;26.90;99.90
52187;DHT22;38161;53.020;6.598;2022-08-19T13:24:16;26.80;99.90
52187;DHT22;38161;53.020;6.598;2022-08-19T13:26:42;26.80;99.90
52187;DHT22;38161;53.020;6.598;2022-08-19T13:29:08;26.60;99.90
52187;DHT22;38161;53.020;6.598;2022-08-19T13:31:52;26.60;99.90
52187;DHT22;38161;53.020;6.598;2022-08-19T13:34:37;26.40;99.90
52187;DHT22;38161;53.020;6.598;2022-08-19T13:37:03;26.30;99.90
52187;DHT22;38161;53.020;6.598;2022-08-19T13:39:30;26.20;99.90
52187;DHT22;38161;53.020;6.598;2022-08-19T13:41:57;26.20;99.90
52187;DHT22;38161;53.020;6.598;2022-08-19T13:44:25;26.30;99.90
52187;DHT22;38161;53.020;6.598;2022-08-19T13:46:51;26.30;99.90
52187;DHT22;38161;53.020;6.598;2022-08-19T13:49:19;26.20;99.90
52187;DHT22;38161;53.020;6.598;2022-08-19T13:51:46;26.10;99.90
52187;DHT22;38161;53.020;6.598;2022-08-19T13:54:12;26.00;99.90
52187;DHT22;38161;53.020;6.598;2022-08-19T13:56:43;25.80;99.90
52187;DHT22;38161;53.020;6.598;2022-08-19T13:59:09;25.70;99.90
52187;DHT22;38161;53.020;6.598;2022-08-19T14:01:36;25.60;99.90
52187;DHT22;38161;53.020;6.598;2022-08-19T14:04:03;25.50;99.90
52187;DHT22;38161;53.020;6.598;2022-08-19T14:06:29;25.40;99.90
52187;DHT22;38161;53.020;6.598;2022-08-19T14:08:54;25.30;99.90
52187;DHT22;38161;53.020;6.598;2022-08-19T14:11:20;25.20;99.90
52187;DHT22;38161;53.020;6.598;2022-08-19T14:13:48;25.20;99.90
52187;DHT22;38161;53.020;6.598;2022-08-19T14:16:16;25.10;99.90
52187;DHT22;38161;53.020;6.598;2022-08-19T14:18:42;25.10;99.90
52187;DHT22;38161;53.020;6.598;2022-08-19T14:21:14;25.00;99.90
52187;DHT22;38161;53.020;6.598;2022-08-19T14:23:40;25.00;99.90
52187;DHT22;38161;53.020;6.598;2022-08-19T14:26:07;24.90;99.90
52187;DHT22;38161;53.020;6.598;2022-08-19T14:28:33;24.90;99.90
52187;DHT22;38161;53.020;6.598;2022-08-19T14:30:58;24.90;99.90
52187;DHT22;38161;53.020;6.598;2022-08-19T14:33:24;24.90;99.90
52187;DHT22;38161;53.020;6.598;2022-08-19T14:35:50;25.10;99.90
52187;DHT22;38161;53.020;6.598;2022-08-19T14:38:17;25.10;99.90
52187;DHT22;38161;53.020;6.598;2022-08-19T14:40:44;25.10;99.90
52187;DHT22;38161;53.020;6.598;2022-08-19T14:43:11;25.20;99.90
52187;DHT22;38161;53.020;6.598;2022-08-19T14:45:38;25.20;99.90
52187;DHT22;38161;53.020;6.598;2022-08-19T14:48:05;25.20;99.90
52187;DHT22;38161;53.020;6.598;2022-08-19T14:50:33;25.20;99.90
52187;DHT22;38161;53.020;6.598;2022-08-19T14:53:02;25.10;99.90
52187;DHT22;38161;53.020;6.598;2022-08-19T14:55:29;25.20;99.90
52187;DHT22;38161;53.020;6.598;2022-08-19T14:57:56;25.20;99.90
52187;DHT22;38161;53.020;6.598;2022-08-19T15:00:22;25.10;99.90
52187;DHT22;38161;53.020;6.598;2022-08-19T15:02:49;25.10;99.90
52187;DHT22;38161;53.020;6.598;2022-08-19T15:05:15;25.00;99.90
52187;DHT22;38161;53.020;6.598;2022-08-19T15:07:42;25.00;99.90
52187;DHT22;38161;53.020;6.598;2022-08-19T15:10:10;24.90;99.90
52187;DHT22;38161;53.020;6.598;2022-08-19T15:12:36;25.00;99.90
52187;DHT22;38161;53.020;6.598;2022-08-19T15:15:08;24.90;99.90
52187;DHT22;38161;53.020;6.598;2022-08-19T15:17:38;24.90;99.90
52187;DHT22;38161;53.020;6.598;2022-08-19T15:20:06;24.90;99.90
52187;DHT22;38161;53.020;6.598;2022-08-19T15:22:32;25.00;99.90
52187;DHT22;38161;53.020;6.598;2022-08-19T15:24:58;25.10;99.90
52187;DHT22;38161;53.020;6.598;2022-08-19T15:27:23;25.10;99.90
52187;DHT22;38161;53.020;6.598;2022-08-19T15:29:49;25.00;99.90
52187;DHT22;38161;53.020;6.598;2022-08-19T15:32:15;25.00;99.90
52187;DHT22;38161;53.020;6.598;2022-08-19T15:34:40;25.00;99.90
52187;DHT22;38161;53.020;6.598;2022-08-19T15:37:06;25.00;99.90
52187;DHT22;38161;53.020;6.598;2022-08-19T15:39:32;24.90;99.90
52187;DHT22;38161;53.020;6.598;2022-08-19T15:41:58;24.90;99.90
52187;DHT22;38161;53.020;6.598;2022-08-19T15:44:28;24.90;99.90
52187;DHT22;38161;53.020;6.598;2022-08-19T15:46:54;24.90;99.90
52187;DHT22;38161;53.020;6.598;2022-08-19T15:49:20;24.90;99.90
52187;DHT22;38161;53.020;6.598;2022-08-19T15:51:47;24.80;99.90
52187;DHT22;38161;53.020;6.598;2022-08-19T15:54:17;24.80;99.90
52187;DHT22;38161;53.020;6.598;2022-08-19T15:56:46;24.80;99.90